sensor_id;sensor_type;location;lat;lon;timestamp;temperature;humidity
4183;DHT22;2105;52.300;9.182;2022-08-19T00:01:46;20.30;99.90
4183;DHT22;2105;52.300;9.182;2022-08-19T00:04:16;20.30;1.00
4183;DHT22;2105;52.300;9.182;2022-08-19T00:06:44;20.20;1.00
4183;DHT22;2105;52.300;9.182;2022-08-19T00:09:15;20.10;1.00
4183;DHT22;2105;52.300;9.182;2022-08-19T00:11:43;20.10;99.90
4183;DHT22;2105;52.300;9.182;2022-08-19T00:14:11;20.10;99.90
4183;DHT22;2105;52.300;9.182;2022-08-19T00:16:39;20.10;99.90
4183;DHT22;2105;52.300;9.182;2022-08-19T00:19:07;20.20;99.90
4183;DHT22;2105;52.300;9.182;2022-08-19T00:21:35;20.20;99.90
4183;DHT22;2105;52.300;9.182;2022-08-19T00:24:04;20.20;99.90
4183;DHT22;2105;52.300;9.182;2022-08-19T00:26:31;20.20;99.90
4183;DHT22;2105;52.300;9.182;2022-08-19T00:28:58;20.20;91.10
4183;DHT22;2105;52.300;9.182;2022-08-19T00:31:26;20.20;99.90
4183;DHT22;2105;52.300;9.182;2022-08-19T00:33:53;20.10;99.90
4183;DHT22;2105;52.300;9.182;2022-08-19T00:36:20;20.10;99.90
4183;DHT22;2105;52.300;9.182;2022-08-19T00:38:48;20.20;99.90
4183;DHT22;2105;52.300;9.182;2022-08-19T00:41:19;20.20;99.90
4183;DHT22;2105;52.300;9.182;2022-08-19T00:43:57;20.20;99.90
4183;DHT22;2105;52.300;9.182;2022-08-19T00:46:24;20.20;99.90
4183;DHT22;2105;52.300;9.182;2022-08-19T00:48:51;20.20;99.90
4183;DHT22;2105;52.300;9.182;2022-08-19T00:51:18;20.10;99.90
4183;DHT22;2105;52.300;9.182;2022-08-19T00:53:44;20.00;1.00
4183;DHT22;2105;52.300;9.182;2022-08-19T00:56:13;20.00;1.00
4183;DHT22;2105;52.300;9.182;2022-08-19T00:58:40;20.00;1.00
4183;DHT22;2105;52.300;9.182;2022-08-19T01:01:07;20.10;1.00
4183;DHT22;2105;52.300;9.182;2022-08-19T01:03:34;19.90;1.00
4183;DHT22;2105;52.300;9.182;2022-08-19T01:06:01;19.80;1.00
4183;DHT22;2105;52.300;9.182;2022-08-19T01:08:28;19.70;1.00
4183;DHT22;2105;52.300;9.182;2022-08-19T01:10:56;19.70;99.90
4183;DHT22;2105;52.300;9.182;2022-08-19T01:13:28;19.70;99.90
4183;DHT22;2105;52.300;9.182;2022-08-19T01:15:59;19.70;99.90
4183;DHT22;2105;52.300;9.182;2022-08-19T01:18:27;19.70;99.90
4183;DHT22;2105;52.300;9.182;2022-08-19T01:21:00;19.70;76.80
4183;DHT22;2105;52.300;9.182;2022-08-19T01:23:29;19.70;99.90
4183;DHT22;2105;52.300;9.182;2022-08-19T01:26:11;19.60;99.90
4183;DHT22;2105;52.300;9.182;2022-08-19T01:28:39;19.70;59.60
4183;DHT22;2105;52.300;9.182;2022-08-19T01:31:07;19.70;1.00
4183;DHT22;2105;52.300;9.182;2022-08-19T01:33:37;19.60;1.00
4183;DHT22;2105;52.300;9.182;2022-08-19T01:36:07;19.50;68.50
4183;DHT22;2105;52.300;9.182;2022-08-19T01:38:38;19.50;99.90
4183;DHT22;2105;52.300;9.182;2022-08-19T01:41:05;19.40;99.90
4183;DHT22;2105;52.300;9.182;2022-08-19T01:43:32;19.40;99.90
4183;DHT22;2105;52.300;9.182;2022-08-19T01:45:59;19.40;99.90
4183;DHT22;2105;52.300;9.182;2022-08-19T01:48:26;19.40;99.90
4183;DHT22;2105;52.300;9.182;2022-08-19T01:50:55;19.40;99.90
4183;DHT22;2105;52.300;9.182;2022-08-19T01:53:22;19.40;99.90
4183;DHT22;2105;52.300;9.182;2022-08-19T01:55:50;19.30;99.90
4183;DHT22;2105;52.300;9.182;2022-08-19T01:58:20;19.20;99.90
4183;DHT22;2105;52.300;9.182;2022-08-19T02:00:47;19.20;99.90
4183;DHT22;2105;52.300;9.182;2022-08-19T02:03:15;19.20;99.90
4183;DHT22;2105;52.300;9.182;2022-08-19T02:05:43;19.20;99.90
4183;DHT22;2105;52.300;9.182;2022-08-19T02:08:11;19.20;99.90
4183;DHT22;2105;52.300;9.182;2022-08-19T02:10:40;19.20;99.90
4183;DHT22;2105;52.300;9.182;2022-08-19T02:13:09;19.00;99.90
4183;DHT22;2105;52.300;9.182;2022-08-19T02:15:35;18.90;1.00
4183;DHT22;2105;52.300;9.182;2022-08-19T02:18:03;18.80;1.00
4183;DHT22;2105;52.300;9.182;2022-08-19T02:20:30;18.70;1.00
4183;DHT22;2105;52.300;9.182;2022-08-19T02:22:57;18.70;1.00
4183;DHT22;2105;52.300;9.182;2022-08-19T02:25:24;18.60;1.00
4183;DHT22;2105;52.300;9.182;2022-08-19T02:27:50;18.60;1.00
4183;DHT22;2105;52.300;9.182;2022-08-19T02:30:18;18.60;1.00
4183;DHT22;2105;52.300;9.182;2022-08-19T02:32:45;18.50;1.00
4183;DHT22;2105;52.300;9.182;2022-08-19T02:35:12;18.50;1.00
4183;DHT22;2105;52.300;9.182;2022-08-19T02:37:39;18.60;1.00
4183;DHT22;2105;52.300;9.182;2022-08-19T02:40:23;18.60;1.00
4183;DHT22;2105;52.300;9.182;2022-08-19T02:42:51;18.50;1.00
4183;DHT22;2105;52.300;9.182;2022-08-19T02:45:19;18.40;1.00
4183;DHT22;2105;52.300;9.182;2022-08-19T02:47:46;18.30;22.20
4183;DHT22;2105;52.300;9.182;2022-08-19T02:50:13;18.20;99.90
4183;DHT22;2105;52.300;9.182;2022-08-19T02:52:40;18.20;99.90
4183;DHT22;2105;52.300;9.182;2022-08-19T02:55:07;18.10;99.90
4183;DHT22;2105;52.300;9.182;2022-08-19T02:57:34;18.10;99.90
4183;DHT22;2105;52.300;9.182;2022-08-19T03:00:02;18.00;99.90
4183;DHT22;2105;52.300;9.182;2022-08-19T03:02:31;18.00;99.90
4183;DHT22;2105;52.300;9.182;2022-08-19T03:04:58;17.90;99.90
4183;DHT22;2105;52.300;9.182;2022-08-19T03:07:24;17.90;99.90
4183;DHT22;2105;52.300;9.182;2022-08-19T03:09:51;17.80;99.90
4183;DHT22;2105;52.300;9.182;2022-08-19T03:12:18;17.80;99.90
4183;DHT22;2105;52.300;9.182;2022-08-19T03:14:44;17.70;99.90
4183;DHT22;2105;52.300;9.182;2022-08-19T03:17:12;17.70;99.90
4183;DHT22;2105;52.300;9.182;2022-08-19T03:19:40;17.80;99.90
4183;DHT22;2105;52.300;9.182;2022-08-19T03:22:06;17.80;99.90
4183;DHT22;2105;52.300;9.182;2022-08-19T03:24:33;17.80;99.90
4183;DHT22;2105;52.300;9.182;2022-08-19T03:27:00;17.70;99.90
4183;DHT22;2105;52.300;9.182;2022-08-19T03:29:30;17.70;99.90
4183;DHT22;2105;52.300;9.182;2022-08-19T03:31:58;17.70;99.90
4183;DHT22;2105;52.300;9.182;2022-08-19T03:34:28;17.60;99.90
4183;DHT22;2105;52.300;9.182;2022-08-19T03:36:58;17.60;99.90
4183;DHT22;2105;52.300;9.182;2022-08-19T03:39:26;17.60;99.90
4183;DHT22;2105;52.300;9.182;2022-08-19T03:41:54;17.60;99.90
4183;DHT22;2105;52.300;9.182;2022-08-19T03:44:22;17.60;99.90
4183;DHT22;2105;52.300;9.182;2022-08-19T03:46:52;17.50;99.90
4183;DHT22;2105;52.300;9.182;2022-08-19T03:49:22;17.50;99.90
4183;DHT22;2105;52.300;9.182;2022-08-19T03:51:50;17.40;99.90
4183;DHT22;2105;52.300;9.182;2022-08-19T03:54:20;17.40;99.90
4183;DHT22;2105;52.300;9.182;2022-08-19T03:56:49;17.40;99.90
4183;DHT22;2105;52.300;9.182;2022-08-19T03:59:18;17.50;99.90
4183;DHT22;2105;52.300;9.182;2022-08-19T04:01:45;17.50;99.90
4183;DHT22;2105;52.300;9.182;2022-08-19T04:04:12;17.40;99.90
4183;DHT22;2105;52.300;9.182;2022-08-19T04:06:39;17.30;99.90
4183;DHT22;2105;52.300;9.182;2022-08-19T04:09:07;17.30;99.90
4183;DHT22;2105;52.300;9.182;2022-08-19T04:11:39;17.20;99.90
4183;DHT22;2105;52.300;9.182;2022-08-19T04:14:07;17.20;99.90
4183;DHT22;2105;52.300;9.182;2022-08-19T04:16:34;17.10;99.90
4183;DHT22;2105;52.300;9.182;2022-08-19T04:19:02;17.10;99.90
4183;DHT22;2105;52.300;9.182;2022-08-19T04:21:29;17.00;99.90
4183;DHT22;2105;52.300;9.182;2022-08-19T04:23:57;17.00;99.90
4183;DHT22;2105;52.300;9.182;2022-08-19T04:26:26;17.00;99.90
4183;DHT22;2105;52.300;9.182;2022-08-19T04:28:54;16.90;99.90
4183;DHT22;2105;52.300;9.182;2022-08-19T04:31:23;17.00;99.90
4183;DHT22;2105;52.300;9.182;2022-08-19T04:33:51;17.00;99.90
4183;DHT22;2105;52.300;9.182;2022-08-19T04:36:20;17.00;99.90
4183;DHT22;2105;52.300;9.182;2022-08-19T04:38:48;17.00;99.90
4183;DHT22;2105;52.300;9.182;2022-08-19T04:41:14;17.00;99.90
4183;DHT22;2105;52.300;9.182;2022-08-19T04:44:00;17.00;99.90
4183;DHT22;2105;52.300;9.182;2022-08-19T04:46:28;17.10;99.90
4183;DHT22;2105;52.300;9.182;2022-08-19T04:48:55;17.10;99.90
4183;DHT22;2105;52.300;9.182;2022-08-19T04:51:23;17.10;99.90
4183;DHT22;2105;52.300;9.182;2022-08-19T04:53:50;17.20;99.90
4183;DHT22;2105;52.300;9.182;2022-08-19T04:56:18;17.20;99.90
4183;DHT22;2105;52.300;9.182;2022-08-19T04:58:49;17.20;99.90
4183;DHT22;2105;52.300;9.182;2022-08-19T05:01:21;17.20;99.90
4183;DHT22;2105;52.300;9.182;2022-08-19T05:03:49;17.20;99.90
4183;DHT22;2105;52.300;9.182;2022-08-19T05:06:17;17.20;99.90
4183;DHT22;2105;52.300;9.182;2022-08-19T05:08:45;17.20;99.90
4183;DHT22;2105;52.300;9.182;2022-08-19T05:11:13;17.30;99.90
4183;DHT22;2105;52.300;9.182;2022-08-19T05:13:40;17.30;99.90
4183;DHT22;2105;52.300;9.182;2022-08-19T05:16:07;17.30;99.90
4183;DHT22;2105;52.300;9.182;2022-08-19T05:18:35;17.40;99.90
4183;DHT22;2105;52.300;9.182;2022-08-19T05:21:20;17.40;99.90
4183;DHT22;2105;52.300;9.182;2022-08-19T05:24:06;17.50;99.90
4183;DHT22;2105;52.300;9.182;2022-08-19T05:26:34;17.60;99.90
4183;DHT22;2105;52.300;9.182;2022-08-19T05:29:01;17.50;99.90
4183;DHT22;2105;52.300;9.182;2022-08-19T05:31:27;17.50;99.90
4183;DHT22;2105;52.300;9.182;2022-08-19T05:33:55;17.50;99.90
4183;DHT22;2105;52.300;9.182;2022-08-19T05:36:23;17.50;99.90
4183;DHT22;2105;52.300;9.182;2022-08-19T05:38:50;17.50;99.90
4183;DHT22;2105;52.300;9.182;2022-08-19T05:41:18;17.50;99.90
4183;DHT22;2105;52.300;9.182;2022-08-19T05:43:45;17.50;99.90
4183;DHT22;2105;52.300;9.182;2022-08-19T05:46:16;17.50;99.90
4183;DHT22;2105;52.300;9.182;2022-08-19T05:48:44;17.50;99.90
4183;DHT22;2105;52.300;9.182;2022-08-19T05:51:12;17.50;99.90
4183;DHT22;2105;52.300;9.182;2022-08-19T05:53:39;17.60;99.90
4183;DHT22;2105;52.300;9.182;2022-08-19T05:56:07;17.60;99.90
4183;DHT22;2105;52.300;9.182;2022-08-19T05:58:35;17.60;99.90
4183;DHT22;2105;52.300;9.182;2022-08-19T06:01:03;17.60;99.90
4183;DHT22;2105;52.300;9.182;2022-08-19T06:03:32;17.70;99.90
4183;DHT22;2105;52.300;9.182;2022-08-19T06:06:00;17.80;99.90
4183;DHT22;2105;52.300;9.182;2022-08-19T06:08:29;18.00;99.90
4183;DHT22;2105;52.300;9.182;2022-08-19T06:10:56;18.10;99.90
4183;DHT22;2105;52.300;9.182;2022-08-19T06:13:23;18.10;99.90
4183;DHT22;2105;52.300;9.182;2022-08-19T06:15:51;18.10;99.90
4183;DHT22;2105;52.300;9.182;2022-08-19T06:18:17;18.20;99.90
4183;DHT22;2105;52.300;9.182;2022-08-19T06:20:45;18.20;1.00
4183;DHT22;2105;52.300;9.182;2022-08-19T06:23:11;18.10;1.00
4183;DHT22;2105;52.300;9.182;2022-08-19T06:25:40;18.20;1.00
4183;DHT22;2105;52.300;9.182;2022-08-19T06:28:06;18.40;1.00
4183;DHT22;2105;52.300;9.182;2022-08-19T06:30:33;18.50;1.00
4183;DHT22;2105;52.300;9.182;2022-08-19T06:33:00;18.40;99.90
4183;DHT22;2105;52.300;9.182;2022-08-19T06:35:26;18.50;99.90
4183;DHT22;2105;52.300;9.182;2022-08-19T06:37:54;18.40;99.90
4183;DHT22;2105;52.300;9.182;2022-08-19T06:40:22;18.40;92.60
4183;DHT22;2105;52.300;9.182;2022-08-19T06:42:50;18.40;1.00
4183;DHT22;2105;52.300;9.182;2022-08-19T06:45:18;18.40;60.30
4183;DHT22;2105;52.300;9.182;2022-08-19T06:47:45;18.50;1.00
4183;DHT22;2105;52.300;9.182;2022-08-19T06:50:13;18.50;77.40
4183;DHT22;2105;52.300;9.182;2022-08-19T06:52:40;18.60;1.00
4183;DHT22;2105;52.300;9.182;2022-08-19T06:55:07;18.60;99.90
4183;DHT22;2105;52.300;9.182;2022-08-19T06:57:34;18.70;99.90
4183;DHT22;2105;52.300;9.182;2022-08-19T07:00:03;18.80;1.00
4183;DHT22;2105;52.300;9.182;2022-08-19T07:02:32;18.80;1.00
4183;DHT22;2105;52.300;9.182;2022-08-19T07:05:03;18.80;1.00
4183;DHT22;2105;52.300;9.182;2022-08-19T07:07:30;18.80;1.00
4183;DHT22;2105;52.300;9.182;2022-08-19T07:09:58;18.90;1.00
4183;DHT22;2105;52.300;9.182;2022-08-19T07:12:24;18.90;1.00
4183;DHT22;2105;52.300;9.182;2022-08-19T07:14:51;18.90;1.00
4183;DHT22;2105;52.300;9.182;2022-08-19T07:17:20;19.00;1.00
4183;DHT22;2105;52.300;9.182;2022-08-19T07:19:46;19.10;99.90
4183;DHT22;2105;52.300;9.182;2022-08-19T07:22:14;19.10;1.00
4183;DHT22;2105;52.300;9.182;2022-08-19T07:24:41;19.10;95.50
4183;DHT22;2105;52.300;9.182;2022-08-19T07:27:08;19.10;99.90
4183;DHT22;2105;52.300;9.182;2022-08-19T07:29:36;19.10;99.90
4183;DHT22;2105;52.300;9.182;2022-08-19T07:32:04;19.20;1.00
4183;DHT22;2105;52.300;9.182;2022-08-19T07:34:32;19.20;1.00
4183;DHT22;2105;52.300;9.182;2022-08-19T07:37:04;19.10;1.00
4183;DHT22;2105;52.300;9.182;2022-08-19T07:39:33;19.10;99.90
4183;DHT22;2105;52.300;9.182;2022-08-19T07:42:04;19.20;99.90
4183;DHT22;2105;52.300;9.182;2022-08-19T07:44:31;19.20;1.00
4183;DHT22;2105;52.300;9.182;2022-08-19T07:46:59;19.30;99.90
4183;DHT22;2105;52.300;9.182;2022-08-19T07:49:26;19.40;1.00
4183;DHT22;2105;52.300;9.182;2022-08-19T07:51:56;19.50;1.00
4183;DHT22;2105;52.300;9.182;2022-08-19T07:54:24;19.70;1.00
4183;DHT22;2105;52.300;9.182;2022-08-19T07:56:52;20.10;99.90
4183;DHT22;2105;52.300;9.182;2022-08-19T07:59:21;20.30;1.00
4183;DHT22;2105;52.300;9.182;2022-08-19T08:01:49;20.70;1.00
4183;DHT22;2105;52.300;9.182;2022-08-19T08:04:17;20.90;99.90
4183;DHT22;2105;52.300;9.182;2022-08-19T08:07:03;21.00;22.70
4183;DHT22;2105;52.300;9.182;2022-08-19T08:09:47;21.00;99.90
4183;DHT22;2105;52.300;9.182;2022-08-19T08:12:16;21.30;1.00
4183;DHT22;2105;52.300;9.182;2022-08-19T08:14:45;21.60;1.00
4183;DHT22;2105;52.300;9.182;2022-08-19T08:17:14;21.80;99.90
4183;DHT22;2105;52.300;9.182;2022-08-19T08:19:41;21.70;99.90
4183;DHT22;2105;52.300;9.182;2022-08-19T08:22:11;21.50;99.90
4183;DHT22;2105;52.300;9.182;2022-08-19T08:25:01;21.40;99.90
4183;DHT22;2105;52.300;9.182;2022-08-19T08:27:27;21.40;99.90
4183;DHT22;2105;52.300;9.182;2022-08-19T08:29:56;21.50;99.90
4183;DHT22;2105;52.300;9.182;2022-08-19T08:32:23;21.50;99.90
4183;DHT22;2105;52.300;9.182;2022-08-19T08:34:49;21.60;99.90
4183;DHT22;2105;52.300;9.182;2022-08-19T08:37:17;21.80;99.90
4183;DHT22;2105;52.300;9.182;2022-08-19T08:39:44;22.00;1.00
4183;DHT22;2105;52.300;9.182;2022-08-19T08:42:15;22.00;1.00
4183;DHT22;2105;52.300;9.182;2022-08-19T08:44:47;22.00;1.00
4183;DHT22;2105;52.300;9.182;2022-08-19T08:47:18;22.20;1.00
4183;DHT22;2105;52.300;9.182;2022-08-19T08:49:49;22.20;1.00
4183;DHT22;2105;52.300;9.182;2022-08-19T08:52:23;22.20;1.00
4183;DHT22;2105;52.300;9.182;2022-08-19T08:54:52;22.20;1.00
4183;DHT22;2105;52.300;9.182;2022-08-19T08:57:32;22.10;1.00
4183;DHT22;2105;52.300;9.182;2022-08-19T09:00:05;22.00;1.00
4183;DHT22;2105;52.300;9.182;2022-08-19T09:02:32;22.40;1.00
4183;DHT22;2105;52.300;9.182;2022-08-19T09:04:59;22.80;1.00
4183;DHT22;2105;52.300;9.182;2022-08-19T09:07:39;22.80;99.90
4183;DHT22;2105;52.300;9.182;2022-08-19T09:10:16;22.70;99.90
4183;DHT22;2105;52.300;9.182;2022-08-19T09:12:50;22.60;99.90
4183;DHT22;2105;52.300;9.182;2022-08-19T09:15:25;22.90;99.90
4183;DHT22;2105;52.300;9.182;2022-08-19T09:17:54;23.10;99.90
4183;DHT22;2105;52.300;9.182;2022-08-19T09:20:25;23.30;99.90
4183;DHT22;2105;52.300;9.182;2022-08-19T09:22:53;23.20;99.90
4183;DHT22;2105;52.300;9.182;2022-08-19T09:25:22;23.20;99.90
4183;DHT22;2105;52.300;9.182;2022-08-19T09:27:51;23.10;99.90
4183;DHT22;2105;52.300;9.182;2022-08-19T09:30:21;23.10;99.90
4183;DHT22;2105;52.300;9.182;2022-08-19T09:32:48;23.50;99.90
4183;DHT22;2105;52.300;9.182;2022-08-19T09:35:15;23.70;99.90
4183;DHT22;2105;52.300;9.182;2022-08-19T09:37:42;24.10;99.90
4183;DHT22;2105;52.300;9.182;2022-08-19T09:40:11;24.30;20.30
4183;DHT22;2105;52.300;9.182;2022-08-19T09:42:38;24.50;1.00
4183;DHT22;2105;52.300;9.182;2022-08-19T09:45:06;24.80;1.00
4183;DHT22;2105;52.300;9.182;2022-08-19T09:47:32;25.10;1.00
4183;DHT22;2105;52.300;9.182;2022-08-19T09:50:01;25.00;1.00
4183;DHT22;2105;52.300;9.182;2022-08-19T09:52:28;24.50;1.00
4183;DHT22;2105;52.300;9.182;2022-08-19T09:54:54;24.20;1.00
4183;DHT22;2105;52.300;9.182;2022-08-19T09:57:22;24.20;1.00
4183;DHT22;2105;52.300;9.182;2022-08-19T09:59:49;24.50;1.00
4183;DHT22;2105;52.300;9.182;2022-08-19T10:02:16;24.90;1.00
4183;DHT22;2105;52.300;9.182;2022-08-19T10:04:43;25.40;1.00
4183;DHT22;2105;52.300;9.182;2022-08-19T10:07:29;26.00;1.00
4183;DHT22;2105;52.300;9.182;2022-08-19T10:09:56;26.30;1.00
4183;DHT22;2105;52.300;9.182;2022-08-19T10:12:24;26.30;1.00
4183;DHT22;2105;52.300;9.182;2022-08-19T10:14:50;26.30;1.00
4183;DHT22;2105;52.300;9.182;2022-08-19T10:17:19;26.10;99.90
4183;DHT22;2105;52.300;9.182;2022-08-19T10:19:46;26.30;99.90
4183;DHT22;2105;52.300;9.182;2022-08-19T10:22:13;26.50;99.90
4183;DHT22;2105;52.300;9.182;2022-08-19T10:24:40;26.50;99.90
4183;DHT22;2105;52.300;9.182;2022-08-19T10:27:07;26.50;99.90
4183;DHT22;2105;52.300;9.182;2022-08-19T10:29:36;26.70;99.90
4183;DHT22;2105;52.300;9.182;2022-08-19T10:32:04;26.80;99.90
4183;DHT22;2105;52.300;9.182;2022-08-19T10:34:32;26.60;99.90
4183;DHT22;2105;52.300;9.182;2022-08-19T10:36:59;26.50;99.90
4183;DHT22;2105;52.300;9.182;2022-08-19T10:39:27;26.50;99.90
4183;DHT22;2105;52.300;9.182;2022-08-19T10:41:54;26.50;99.90
4183;DHT22;2105;52.300;9.182;2022-08-19T10:44:22;26.40;99.90
4183;DHT22;2105;52.300;9.182;2022-08-19T10:46:51;26.40;99.90
4183;DHT22;2105;52.300;9.182;2022-08-19T10:49:18;26.50;99.90
4183;DHT22;2105;52.300;9.182;2022-08-19T10:51:45;26.50;99.90
4183;DHT22;2105;52.300;9.182;2022-08-19T10:54:32;26.40;99.90
4183;DHT22;2105;52.300;9.182;2022-08-19T10:57:13;26.50;99.90
4183;DHT22;2105;52.300;9.182;2022-08-19T10:59:40;26.20;99.90
4183;DHT22;2105;52.300;9.182;2022-08-19T11:02:09;26.10;99.90
4183;DHT22;2105;52.300;9.182;2022-08-19T11:04:37;26.20;99.90
4183;DHT22;2105;52.300;9.182;2022-08-19T11:07:05;26.40;99.90
4183;DHT22;2105;52.300;9.182;2022-08-19T11:09:37;26.80;99.90
4183;DHT22;2105;52.300;9.182;2022-08-19T11:12:04;27.20;99.90
4183;DHT22;2105;52.300;9.182;2022-08-19T11:14:33;27.30;99.90
4183;DHT22;2105;52.300;9.182;2022-08-19T11:17:00;27.50;99.90
4183;DHT22;2105;52.300;9.182;2022-08-19T11:19:29;27.40;99.90
4183;DHT22;2105;52.300;9.182;2022-08-19T11:21:56;27.50;99.90
4183;DHT22;2105;52.300;9.182;2022-08-19T11:24:28;27.70;99.90
4183;DHT22;2105;52.300;9.182;2022-08-19T11:27:02;27.80;99.90
4183;DHT22;2105;52.300;9.182;2022-08-19T11:29:32;27.90;99.90
4183;DHT22;2105;52.300;9.182;2022-08-19T11:32:02;27.90;99.90
4183;DHT22;2105;52.300;9.182;2022-08-19T11:34:31;27.80;99.90
4183;DHT22;2105;52.300;9.182;2022-08-19T11:36:58;27.90;99.90
4183;DHT22;2105;52.300;9.182;2022-08-19T11:39:27;28.00;99.90
4183;DHT22;2105;52.300;9.182;2022-08-19T11:41:54;27.90;99.90
4183;DHT22;2105;52.300;9.182;2022-08-19T11:44:20;27.90;99.90
4183;DHT22;2105;52.300;9.182;2022-08-19T11:46:47;27.90;99.90
4183;DHT22;2105;52.300;9.182;2022-08-19T11:49:15;28.00;99.90
4183;DHT22;2105;52.300;9.182;2022-08-19T11:51:46;28.00;99.90
4183;DHT22;2105;52.300;9.182;2022-08-19T11:54:15;28.30;99.90
4183;DHT22;2105;52.300;9.182;2022-08-19T11:56:43;28.50;99.90
4183;DHT22;2105;52.300;9.182;2022-08-19T11:59:10;28.60;99.90
4183;DHT22;2105;52.300;9.182;2022-08-19T12:01:37;28.80;99.90
4183;DHT22;2105;52.300;9.182;2022-08-19T12:04:06;29.00;99.90
4183;DHT22;2105;52.300;9.182;2022-08-19T12:06:33;29.00;99.90
4183;DHT22;2105;52.300;9.182;2022-08-19T12:09:04;29.00;99.90
4183;DHT22;2105;52.300;9.182;2022-08-19T12:11:32;29.00;99.90
4183;DHT22;2105;52.300;9.182;2022-08-19T12:13:59;29.20;99.90
4183;DHT22;2105;52.300;9.182;2022-08-19T12:16:28;29.20;99.90
4183;DHT22;2105;52.300;9.182;2022-08-19T12:18:55;29.10;99.90
4183;DHT22;2105;52.300;9.182;2022-08-19T12:21:25;29.20;99.90
4183;DHT22;2105;52.300;9.182;2022-08-19T12:23:53;29.30;99.90
4183;DHT22;2105;52.300;9.182;2022-08-19T12:26:22;29.40;99.90
4183;DHT22;2105;52.300;9.182;2022-08-19T12:28:49;29.30;99.90
4183;DHT22;2105;52.300;9.182;2022-08-19T12:31:16;29.20;99.90
4183;DHT22;2105;52.300;9.182;2022-08-19T12:33:43;29.20;99.90
4183;DHT22;2105;52.300;9.182;2022-08-19T12:36:11;29.30;99.90
4183;DHT22;2105;52.300;9.182;2022-08-19T12:38:39;29.50;99.90
4183;DHT22;2105;52.300;9.182;2022-08-19T12:41:09;29.40;99.90
4183;DHT22;2105;52.300;9.182;2022-08-19T12:43:38;29.30;99.90
4183;DHT22;2105;52.300;9.182;2022-08-19T12:46:06;29.60;99.90
4183;DHT22;2105;52.300;9.182;2022-08-19T12:48:33;29.60;99.90
4183;DHT22;2105;52.300;9.182;2022-08-19T12:51:00;29.50;99.90
4183;DHT22;2105;52.300;9.182;2022-08-19T12:53:27;29.80;99.90
4183;DHT22;2105;52.300;9.182;2022-08-19T12:55:55;29.80;99.90
4183;DHT22;2105;52.300;9.182;2022-08-19T12:58:22;29.80;99.90
4183;DHT22;2105;52.300;9.182;2022-08-19T13:00:51;30.10;99.90
4183;DHT22;2105;52.300;9.182;2022-08-19T13:03:18;30.10;99.90
4183;DHT22;2105;52.300;9.182;2022-08-19T13:05:44;30.20;99.90
4183;DHT22;2105;52.300;9.182;2022-08-19T13:08:11;30.20;99.90
4183;DHT22;2105;52.300;9.182;2022-08-19T13:10:38;30.10;99.90
4183;DHT22;2105;52.300;9.182;2022-08-19T13:13:07;29.90;99.90
4183;DHT22;2105;52.300;9.182;2022-08-19T13:15:36;29.90;99.90
4183;DHT22;2105;52.300;9.182;2022-08-19T13:18:07;30.00;99.90
4183;DHT22;2105;52.300;9.182;2022-08-19T13:20:35;29.70;99.90
4183;DHT22;2105;52.300;9.182;2022-08-19T13:23:01;29.80;99.90
4183;DHT22;2105;52.300;9.182;2022-08-19T13:25:29;29.90;99.90
4183;DHT22;2105;52.300;9.182;2022-08-19T13:27:56;29.90;99.90
4183;DHT22;2105;52.300;9.182;2022-08-19T13:30:22;30.00;99.90
4183;DHT22;2105;52.300;9.182;2022-08-19T13:33:09;30.20;99.90
4183;DHT22;2105;52.300;9.182;2022-08-19T13:35:40;30.20;99.90
4183;DHT22;2105;52.300;9.182;2022-08-19T13:38:08;30.20;99.90
4183;DHT22;2105;52.300;9.182;2022-08-19T13:40:34;30.30;99.90
4183;DHT22;2105;52.300;9.182;2022-08-19T13:43:02;30.20;99.90
4183;DHT22;2105;52.300;9.182;2022-08-19T13:45:31;30.30;99.90
4183;DHT22;2105;52.300;9.182;2022-08-19T13:48:00;30.10;99.90
4183;DHT22;2105;52.300;9.182;2022-08-19T13:50:33;30.10;99.90
4183;DHT22;2105;52.300;9.182;2022-08-19T13:53:02;30.30;99.90
4183;DHT22;2105;52.300;9.182;2022-08-19T13:55:30;30.30;99.90
4183;DHT22;2105;52.300;9.182;2022-08-19T13:57:58;30.20;99.90
4183;DHT22;2105;52.300;9.182;2022-08-19T14:00:31;30.20;99.90
4183;DHT22;2105;52.300;9.182;2022-08-19T14:02:58;30.30;99.90
4183;DHT22;2105;52.300;9.182;2022-08-19T14:05:26;30.10;99.90
4183;DHT22;2105;52.300;9.182;2022-08-19T14:07:55;30.10;99.90
4183;DHT22;2105;52.300;9.182;2022-08-19T14:10:22;30.10;99.90
4183;DHT22;2105;52.300;9.182;2022-08-19T14:12:53;30.30;99.90
4183;DHT22;2105;52.300;9.182;2022-08-19T14:15:20;30.20;99.90
4183;DHT22;2105;52.300;9.182;2022-08-19T14:17:48;30.10;99.90
4183;DHT22;2105;52.300;9.182;2022-08-19T14:20:15;30.20;99.90
4183;DHT22;2105;52.300;9.182;2022-08-19T14:22:43;30.10;99.90
4183;DHT22;2105;52.300;9.182;2022-08-19T14:25:13;30.10;99.90
4183;DHT22;2105;52.300;9.182;2022-08-19T14:27:41;30.10;99.90
4183;DHT22;2105;52.300;9.182;2022-08-19T14:30:10;30.10;99.90
4183;DHT22;2105;52.300;9.182;2022-08-19T14:32:37;30.00;99.90
4183;DHT22;2105;52.300;9.182;2022-08-19T14:35:05;29.80;99.90
4183;DHT22;2105;52.300;9.182;2022-08-19T14:37:33;29.80;99.90
4183;DHT22;2105;52.300;9.182;2022-08-19T14:39:59;29.60;99.90
4183;DHT22;2105;52.300;9.182;2022-08-19T14:42:27;29.30;99.90
4183;DHT22;2105;52.300;9.182;2022-08-19T14:44:57;29.10;99.90
4183;DHT22;2105;52.300;9.182;2022-08-19T14:47:24;28.80;99.90
4183;DHT22;2105;52.300;9.182;2022-08-19T14:49:51;28.90;99.90
4183;DHT22;2105;52.300;9.182;2022-08-19T14:52:18;29.10;99.90
4183;DHT22;2105;52.300;9.182;2022-08-19T14:54:44;29.30;99.90
4183;DHT22;2105;52.300;9.182;2022-08-19T14:57:12;29.30;99.90
4183;DHT22;2105;52.300;9.182;2022-08-19T14:59:42;28.80;99.90
4183;DHT22;2105;52.300;9.182;2022-08-19T15:02:09;28.60;99.90
4183;DHT22;2105;52.300;9.182;2022-08-19T15:04:36;28.70;99.90
4183;DHT22;2105;52.300;9.182;2022-08-19T15:07:03;29.10;99.90
4183;DHT22;2105;52.300;9.182;2022-08-19T15:09:30;29.30;99.90
4183;DHT22;2105;52.300;9.182;2022-08-19T15:11:57;29.00;99.90
4183;DHT22;2105;52.300;9.182;2022-08-19T15:14:24;28.70;99.90
4183;DHT22;2105;52.300;9.182;2022-08-19T15:16:53;28.70;99.90
4183;DHT22;2105;52.300;9.182;2022-08-19T15:19:20;28.60;99.90
4183;DHT22;2105;52.300;9.182;2022-08-19T15:21:47;28.60;99.90
4183;DHT22;2105;52.300;9.182;2022-08-19T15:24:14;28.50;99.90
4183;DHT22;2105;52.300;9.182;2022-08-19T15:26:42;28.40;99.90
4183;DHT22;2105;52.300;9.182;2022-08-19T15:29:09;28.30;99.90
4183;DHT22;2105;52.300;9.182;2022-08-19T15:31:40;28.30;99.90
4183;DHT22;2105;52.300;9.182;2022-08-19T15:34:08;28.40;99.90
4183;DHT22;2105;52.300;9.182;2022-08-19T15:36:35;28.60;99.90
4183;DHT22;2105;52.300;9.182;2022-08-19T15:39:03;28.70;99.90
4183;DHT22;2105;52.300;9.182;2022-08-19T15:41:31;28.90;99.90
4183;DHT22;2105;52.300;9.182;2022-08-19T15:44:00;29.00;99.90
4183;DHT22;2105;52.300;9.182;2022-08-19T15:46:30;29.10;99.90
4183;DHT22;2105;52.300;9.182;2022-08-19T15:48:58;29.20;99.90
4183;DHT22;2105;52.300;9.182;2022-08-19T15:51:28;29.30;99.90
4183;DHT22;2105;52.300;9.182;2022-08-19T15:53:55;29.40;99.90
4183;DHT22;2105;52.300;9.182;2022-08-19T15:56:22;29.40;99.90
4183;DHT22;2105;52.300;9.182;2022-08-19T15:58:49;29.40;99.90
4183;DHT22;2105;52.300;9.182;2022-08-19T16:01:33;29.40;99.90
4183;DHT22;2105;52.300;9.182;2022-08-19T16:04:17;29.60;99.90
4183;DHT22;2105;52.300;9.182;2022-08-19T16:07:14;29.60;99.90
4183;DHT22;2105;52.300;9.182;2022-08-19T16:09:41;29.50;99.90
4183;DHT22;2105;52.300;9.182;2022-08-19T16:12:08;29.50;99.90
4183;DHT22;2105;52.300;9.182;2022-08-19T16:14:35;29.60;99.90